Apple Valley, North Dakota
Current Conditions -  °F | °C
As of 8:52 PM on Wednesday 26 Nov 2014 (Local Time) from KBIS Reporting Station
Few Clouds Few Clouds  
Wind Chill: -20°   Ceiling: Unl
Heat Index: -5°   Visibility: 10mi
Dew Point: -10°   Wind: 8mph
Humidity: 80%   Direction: 50°NE
Pressure: 30.46"   Gusts: NA
Location:  46.8954°N, 100.519°W
Report Text: KBIS 270252Z AUTO 05007KT 10SM FEW060 M21/M23 A3046 RMK AO2 SLP364 I1000 I3000 T12061233 53004
Loading
Personal Weather Stations






























Interactive Weather Map New forecast layout! Learn more

10-Day Weather Forecast

Advertisements
Track Severe Weather on mobile